Terminal Aerodrome Forecast
Issued by NWS St Louis, MO

Home | Current Version | Previous Version | Text Only | Print | Product List | Glossary On
Versions: 1 2 3 4 5 6 7 8 9 10 11 12 13 14 15 16 17 18 19 20 21 22 23 24
000
FTUS43 KLSX 210253 AAA
TAFSTL
TAF AMD
KSTL 210253Z 2103/2206 16011KT P6SM BKN250
     FM210600 16008KT P6SM BKN200 WS017/19040KT
     FM211500 17010G19KT P6SM BKN200
     FM220000 16012G23KT P6SM BKN140=

USA.gov is the U.S. government's official web portal to all federal, state and local government web resources and services.